AirNav   Free Bose QuietComfort 20
 
 749 users online  

MN33 St Mary's Hospital Heliport
Duluth, Minnesota, USA

GOING TO DULUTH?


FAA INFORMATION EFFECTIVE 05 DECEMBER 2019

Location

FAA Identifier: MN33
Lat/Long: 46-47-37.8600N 092-05-51.9100W
46-47.631000N 092-05.865167W
46.7938500,-92.0977528
(estimated)
Elevation: 859.6 ft. / 262.0 m (surveyed)
Variation: 01W (2020)
Time zone: UTC -6 (UTC -5 during Daylight Saving Time)
Zip code: 55805

Heliport Operations

Heliport use: Private use, MEDICAL.
Activation date: 01/1989
Control tower: no
ARTCC: MINNEAPOLIS CENTER
FSS: PRINCETON FLIGHT SERVICE STATION
NOTAMs facility: FDC (NOTAM-D service not available)
Attendance: CONTINUOUS
Wind indicator: lighted
Segmented circle: no
Lights: ACTVT OBSTN AND FLOOD LGTS - 123.05.
Beacon: white-green-yellow (heliport)
FOR ROTG BCN CALL 218-720-2392.

Heliport Communications

UNICOM: 123.05
DULUTH APPROACH: 124.8
EHOSI DP: 124.8
IC: 124.8
WX AWOS-3 at DYT (5 nm SE): 119.275 (218-720-4886)
WX ASOS at DLH (5 nm NW): PHONE 218-740-5977
WX AWOS-3 at SUW (6 nm S): 120.35 (715-394-0283)
WX AWOS-3 at COQ (18 nm W): 118.525 (218-879-0783)

Nearby radio navigation aids

VOR radial/distance  VOR name  Freq  Var
DLHr092/4.3DULUTH VORTAC112.6005E
HIBr139/39.3HIBBING VOR/DME110.8002E

 
NDB name  Hdg/Dist  Freq  Var  ID
PYKLA106/11.037900EDL -.. .-..
CLOQUET072/17.633501WCOQ -.-. --- --.-
MOOSE LAKE050/36.936202EMZH -- --.. ....
SILVER BAY226/39.235000EBFW -... ..-. .--

Heliport Services

Fuel available: A

Runway Information

Helipad H1

Dimensions: 125 x 125 ft. / 38 x 38 m
Surface: concrete
Runway edge lights: FLD
Latitude: 46-47.631000N
Longitude: 092-05.865167W
Elevation: 859.6 ft.
Traffic pattern: leftleft

Heliport Ownership and Management from official FAA records

Ownership: Privately-owned
Owner: ST MARY'S MEDICAL CENTER
407 EAST THIRD ST
DULUTH, MN 55805
Phone (218) 786-4000
Manager: JON NIKSICH
407 EAST THIRD ST
DULUTH, MN 55805
Phone 218-786-4384

Additional Remarks

A52-H1 HAS 60' BLDG 320' EAST & 70' STACK 400' EAST.
FOR CD CTC MINNEAPOLIS ARTCC AT 651-463-5588.

Instrument Procedures

There are no published instrument procedures at MN33.

Some nearby airports with instrument procedures:

KDLH - Duluth International Airport (5 nm NW)
KSUW - Richard I Bong Airport (6 nm S)
KCOQ - Cloquet/Carlton County Airport (18 nm W)
KTWM - Richard B Helgeson Airport (21 nm NE)
KOLG - Solon Springs Municipal Airport (31 nm S)
 
Loc | Ops | Rwys | IFR | FBO | Links
Com | Nav | Svcs | Stats | Notes
Area around MN33 (St Mary's Hospital Heliport)
 
Road maps at: MapQuest Bing Google
 
Aerial photo
No photo
 
Sectional chart

 
Airport distance calculator
Flying to St Mary's Hospital Heliport? Find the distance to fly.

From to MN33

Sunrise and sunset
Times for 15-Dec-2019
 Local
(UTC-6)
 Zulu
(UTC)
Morning civil twilight07:1213:12
Sunrise07:4813:48
Sunset16:1922:19
Evening civil twilight16:5522:55

Current date and time
Zulu (UTC)  15-Dec-2019 21:21:13
Local (UTC-6)  15-Dec-2019 15:21:13
 
METAR
KDYT 
5nm SE 
152056Z AUTO 24007KT 10SM BKN050 OVC055 M15/M19 A3006 RMK AO2
KDLH 
5nm NW 
152055Z 22008KT 8SM FEW035 OVC050 M15/M20 A2996 RMK AO2 SLP189 T11501200 56012
KCOQ 
17nm W 
152055Z AUTO 21006KT 10SM -SN BKN032 OVC049 M16/M21 A2998 RMK AO2
TAF
KDLH 
5nm NW 
151739Z 1518/1618 23007KT P6SM BKN100 FM152000 23009KT 4SM -SN SCT025 OVC035 FM152200 23011KT 4SM -SN BKN015 OVC025 FM160200 25008KT P6SM OVC015 FM161600 28011KT P6SM OVC025
NOTAMs
Click for the latest NOTAMs
NOTAMs are issued by the DoD/FAA and will open in a separate window not controlled by AirNav.

 

 
 

Would you like to see your business listed on this page?

 If your business provides an interesting product or service to pilots, flight crews, aircraft, or users of the St Mary's Hospital Heliport, you should consider listing it here.  To start the listing process, click on the button below
 
Add a business
 

Other Pages about St Mary's Hospital Heliport

Update a link
 
Copyright © AirNav, LLC. All rights reserved. Privacy Policy  Contact